sensor_id;sensor_type;location;lat;lon;timestamp;P1;durP1;ratioP1;P2;durP2;ratioP2
4420;SDS011;11824;51.178;13.546;2023-12-20T00:00:29;5.37;;;4.10;;
4420;SDS011;11824;51.178;13.546;2023-12-20T00:03:01;3.70;;;3.30;;
4420;SDS011;11824;51.178;13.546;2023-12-20T00:05:30;5.57;;;3.70;;
4420;SDS011;11824;51.178;13.546;2023-12-20T00:07:59;8.53;;;3.67;;
4420;SDS011;11824;51.178;13.546;2023-12-20T00:10:28;3.30;;;3.00;;
4420;SDS011;11824;51.178;13.546;2023-12-20T00:12:57;4.27;;;3.60;;
4420;SDS011;11824;51.178;13.546;2023-12-20T00:15:26;3.27;;;3.03;;
4420;SDS011;11824;51.178;13.546;2023-12-20T00:17:55;3.40;;;3.07;;
4420;SDS011;11824;51.178;13.546;2023-12-20T00:20:25;3.57;;;2.93;;
4420;SDS011;11824;51.178;13.546;2023-12-20T00:22:55;3.27;;;2.83;;
4420;SDS011;11824;51.178;13.546;2023-12-20T00:25:25;3.07;;;2.87;;
4420;SDS011;11824;51.178;13.546;2023-12-20T00:27:54;3.60;;;3.30;;
4420;SDS011;11824;51.178;13.546;2023-12-20T00:30:22;3.90;;;3.50;;
4420;SDS011;11824;51.178;13.546;2023-12-20T00:32:51;5.70;;;3.50;;
4420;SDS011;11824;51.178;13.546;2023-12-20T00:35:20;3.90;;;3.40;;
4420;SDS011;11824;51.178;13.546;2023-12-20T00:37:50;4.30;;;3.40;;
4420;SDS011;11824;51.178;13.546;2023-12-20T00:40:19;4.00;;;3.60;;
4420;SDS011;11824;51.178;13.546;2023-12-20T00:42:48;4.10;;;2.80;;
4420;SDS011;11824;51.178;13.546;2023-12-20T00:45:17;4.13;;;3.50;;
4420;SDS011;11824;51.178;13.546;2023-12-20T00:47:46;4.23;;;3.23;;
4420;SDS011;11824;51.178;13.546;2023-12-20T00:50:15;4.50;;;2.60;;
4420;SDS011;11824;51.178;13.546;2023-12-20T00:52:44;5.70;;;3.30;;
4420;SDS011;11824;51.178;13.546;2023-12-20T00:55:14;4.00;;;2.93;;
4420;SDS011;11824;51.178;13.546;2023-12-20T00:57:43;3.57;;;2.20;;
4420;SDS011;11824;51.178;13.546;2023-12-20T01:00:13;3.10;;;2.80;;
4420;SDS011;11824;51.178;13.546;2023-12-20T01:02:42;3.50;;;2.53;;
4420;SDS011;11824;51.178;13.546;2023-12-20T01:05:13;2.87;;;2.63;;
4420;SDS011;11824;51.178;13.546;2023-12-20T01:07:41;2.67;;;2.47;;
4420;SDS011;11824;51.178;13.546;2023-12-20T01:10:10;2.77;;;2.30;;
4420;SDS011;11824;51.178;13.546;2023-12-20T01:12:41;2.43;;;2.23;;
4420;SDS011;11824;51.178;13.546;2023-12-20T01:15:10;2.93;;;2.60;;
4420;SDS011;11824;51.178;13.546;2023-12-20T01:17:39;4.20;;;2.07;;
4420;SDS011;11824;51.178;13.546;2023-12-20T01:20:09;2.27;;;2.03;;
4420;SDS011;11824;51.178;13.546;2023-12-20T01:22:38;2.43;;;2.33;;
4420;SDS011;11824;51.178;13.546;2023-12-20T01:25:09;2.60;;;2.40;;
4420;SDS011;11824;51.178;13.546;2023-12-20T01:27:38;2.30;;;2.10;;
4420;SDS011;11824;51.178;13.546;2023-12-20T01:30:08;2.27;;;2.07;;
4420;SDS011;11824;51.178;13.546;2023-12-20T01:32:38;2.10;;;1.90;;
4420;SDS011;11824;51.178;13.546;2023-12-20T01:35:07;1.83;;;1.73;;
4420;SDS011;11824;51.178;13.546;2023-12-20T01:37:36;1.90;;;1.80;;
4420;SDS011;11824;51.178;13.546;2023-12-20T01:40:05;1.80;;;1.70;;
4420;SDS011;11824;51.178;13.546;2023-12-20T01:42:34;2.70;;;1.80;;
4420;SDS011;11824;51.178;13.546;2023-12-20T01:45:05;1.40;;;1.30;;
4420;SDS011;11824;51.178;13.546;2023-12-20T01:47:35;1.80;;;1.70;;
4420;SDS011;11824;51.178;13.546;2023-12-20T01:50:05;1.40;;;1.30;;
4420;SDS011;11824;51.178;13.546;2023-12-20T01:52:35;1.57;;;1.47;;
4420;SDS011;11824;51.178;13.546;2023-12-20T01:55:05;1.80;;;1.70;;
4420;SDS011;11824;51.178;13.546;2023-12-20T01:57:40;2.07;;;1.80;;
4420;SDS011;11824;51.178;13.546;2023-12-20T02:00:11;1.93;;;1.67;;
4420;SDS011;11824;51.178;13.546;2023-12-20T02:02:41;2.33;;;2.13;;
4420;SDS011;11824;51.178;13.546;2023-12-20T02:05:10;1.50;;;1.40;;
4420;SDS011;11824;51.178;13.546;2023-12-20T02:07:40;1.37;;;1.27;;
4420;SDS011;11824;51.178;13.546;2023-12-20T02:10:09;4.60;;;1.60;;
4420;SDS011;11824;51.178;13.546;2023-12-20T02:12:37;1.43;;;1.33;;
4420;SDS011;11824;51.178;13.546;2023-12-20T02:15:07;1.83;;;1.53;;
4420;SDS011;11824;51.178;13.546;2023-12-20T02:17:37;1.67;;;1.57;;
4420;SDS011;11824;51.178;13.546;2023-12-20T02:20:07;2.30;;;2.10;;
4420;SDS011;11824;51.178;13.546;2023-12-20T02:22:38;1.40;;;1.30;;
4420;SDS011;11824;51.178;13.546;2023-12-20T02:25:07;1.63;;;1.47;;
4420;SDS011;11824;51.178;13.546;2023-12-20T02:27:36;1.40;;;1.30;;
4420;SDS011;11824;51.178;13.546;2023-12-20T02:30:06;1.10;;;1.10;;
4420;SDS011;11824;51.178;13.546;2023-12-20T02:32:35;1.33;;;1.23;;
4420;SDS011;11824;51.178;13.546;2023-12-20T02:35:05;1.17;;;1.17;;
4420;SDS011;11824;51.178;13.546;2023-12-20T02:37:34;2.07;;;1.23;;
4420;SDS011;11824;51.178;13.546;2023-12-20T02:40:05;1.20;;;1.10;;
4420;SDS011;11824;51.178;13.546;2023-12-20T02:42:34;0.97;;;0.97;;
4420;SDS011;11824;51.178;13.546;2023-12-20T02:45:03;1.23;;;1.17;;
4420;SDS011;11824;51.178;13.546;2023-12-20T02:47:33;1.77;;;1.37;;
4420;SDS011;11824;51.178;13.546;2023-12-20T02:50:02;1.20;;;1.20;;
4420;SDS011;11824;51.178;13.546;2023-12-20T02:52:31;2.10;;;1.27;;
4420;SDS011;11824;51.178;13.546;2023-12-20T02:55:00;1.23;;;1.10;;
4420;SDS011;11824;51.178;13.546;2023-12-20T02:57:30;1.53;;;1.47;;
4420;SDS011;11824;51.178;13.546;2023-12-20T02:59:59;1.20;;;1.00;;
4420;SDS011;11824;51.178;13.546;2023-12-20T03:02:28;1.10;;;1.00;;
4420;SDS011;11824;51.178;13.546;2023-12-20T03:04:57;1.40;;;1.30;;
4420;SDS011;11824;51.178;13.546;2023-12-20T03:07:26;1.20;;;1.10;;
4420;SDS011;11824;51.178;13.546;2023-12-20T03:09:56;1.40;;;1.20;;
4420;SDS011;11824;51.178;13.546;2023-12-20T03:12:46;3.80;;;1.67;;
4420;SDS011;11824;51.178;13.546;2023-12-20T03:15:14;1.30;;;1.20;;
4420;SDS011;11824;51.178;13.546;2023-12-20T03:17:42;1.07;;;1.07;;
4420;SDS011;11824;51.178;13.546;2023-12-20T03:20:12;2.50;;;1.20;;
4420;SDS011;11824;51.178;13.546;2023-12-20T03:22:41;2.20;;;1.27;;
4420;SDS011;11824;51.178;13.546;2023-12-20T03:25:09;1.20;;;1.20;;
4420;SDS011;11824;51.178;13.546;2023-12-20T03:27:38;3.03;;;1.47;;
4420;SDS011;11824;51.178;13.546;2023-12-20T03:30:09;1.60;;;1.50;;
4420;SDS011;11824;51.178;13.546;2023-12-20T03:32:38;1.20;;;1.20;;
4420;SDS011;11824;51.178;13.546;2023-12-20T03:35:07;1.27;;;1.00;;
4420;SDS011;11824;51.178;13.546;2023-12-20T03:37:36;1.00;;;1.00;;
4420;SDS011;11824;51.178;13.546;2023-12-20T03:40:05;1.50;;;1.40;;
4420;SDS011;11824;51.178;13.546;2023-12-20T03:42:34;1.37;;;1.27;;
4420;SDS011;11824;51.178;13.546;2023-12-20T03:45:03;1.50;;;1.40;;
4420;SDS011;11824;51.178;13.546;2023-12-20T03:47:34;1.47;;;1.37;;
4420;SDS011;11824;51.178;13.546;2023-12-20T03:50:04;1.03;;;1.03;;
4420;SDS011;11824;51.178;13.546;2023-12-20T03:52:33;1.67;;;1.57;;
4420;SDS011;11824;51.178;13.546;2023-12-20T03:55:02;1.33;;;1.23;;
4420;SDS011;11824;51.178;13.546;2023-12-20T03:57:31;1.73;;;1.60;;
4420;SDS011;11824;51.178;13.546;2023-12-20T04:00:00;1.07;;;1.07;;
4420;SDS011;11824;51.178;13.546;2023-12-20T04:02:29;1.40;;;1.30;;
4420;SDS011;11824;51.178;13.546;2023-12-20T04:04:59;1.40;;;1.40;;
4420;SDS011;11824;51.178;13.546;2023-12-20T04:07:28;1.27;;;1.17;;
4420;SDS011;11824;51.178;13.546;2023-12-20T04:09:57;1.70;;;1.10;;
4420;SDS011;11824;51.178;13.546;2023-12-20T04:12:26;1.13;;;1.13;;
4420;SDS011;11824;51.178;13.546;2023-12-20T04:14:55;1.23;;;1.23;;
4420;SDS011;11824;51.178;13.546;2023-12-20T04:17:24;2.37;;;2.17;;
4420;SDS011;11824;51.178;13.546;2023-12-20T04:19:53;17.60;;;6.70;;
4420;SDS011;11824;51.178;13.546;2023-12-20T04:22:23;1.33;;;1.23;;
4420;SDS011;11824;51.178;13.546;2023-12-20T04:24:52;1.20;;;1.10;;
4420;SDS011;11824;51.178;13.546;2023-12-20T04:27:21;0.93;;;0.93;;
4420;SDS011;11824;51.178;13.546;2023-12-20T04:29:50;1.90;;;1.80;;
4420;SDS011;11824;51.178;13.546;2023-12-20T04:32:19;1.27;;;1.17;;
4420;SDS011;11824;51.178;13.546;2023-12-20T04:34:48;1.00;;;0.93;;
4420;SDS011;11824;51.178;13.546;2023-12-20T04:37:16;0.90;;;0.90;;
4420;SDS011;11824;51.178;13.546;2023-12-20T04:39:47;2.23;;;0.90;;
4420;SDS011;11824;51.178;13.546;2023-12-20T04:42:16;1.60;;;1.50;;
4420;SDS011;11824;51.178;13.546;2023-12-20T04:44:45;1.23;;;1.20;;
4420;SDS011;11824;51.178;13.546;2023-12-20T04:47:14;1.30;;;1.20;;
4420;SDS011;11824;51.178;13.546;2023-12-20T04:49:42;1.87;;;1.77;;
4420;SDS011;11824;51.178;13.546;2023-12-20T04:52:11;1.40;;;1.40;;
4420;SDS011;11824;51.178;13.546;2023-12-20T04:54:41;1.47;;;1.20;;
4420;SDS011;11824;51.178;13.546;2023-12-20T04:57:12;0.93;;;0.93;;
4420;SDS011;11824;51.178;13.546;2023-12-20T04:59:40;1.37;;;1.30;;
4420;SDS011;11824;51.178;13.546;2023-12-20T05:02:09;2.77;;;1.07;;
4420;SDS011;11824;51.178;13.546;2023-12-20T05:04:38;0.93;;;0.73;;
4420;SDS011;11824;51.178;13.546;2023-12-20T05:07:08;0.93;;;0.93;;
4420;SDS011;11824;51.178;13.546;2023-12-20T05:09:36;1.17;;;1.10;;
4420;SDS011;11824;51.178;13.546;2023-12-20T05:12:06;1.27;;;0.97;;
4420;SDS011;11824;51.178;13.546;2023-12-20T05:14:36;1.10;;;1.10;;
4420;SDS011;11824;51.178;13.546;2023-12-20T05:17:05;1.17;;;1.17;;
4420;SDS011;11824;51.178;13.546;2023-12-20T05:19:34;1.00;;;1.00;;
4420;SDS011;11824;51.178;13.546;2023-12-20T05:22:03;1.73;;;1.63;;
4420;SDS011;11824;51.178;13.546;2023-12-20T05:24:32;3.13;;;2.83;;
4420;SDS011;11824;51.178;13.546;2023-12-20T05:27:00;1.97;;;1.80;;
4420;SDS011;11824;51.178;13.546;2023-12-20T05:29:29;5.47;;;3.20;;
4420;SDS011;11824;51.178;13.546;2023-12-20T05:31:59;2.30;;;2.20;;
4420;SDS011;11824;51.178;13.546;2023-12-20T05:34:29;2.20;;;2.10;;
4420;SDS011;11824;51.178;13.546;2023-12-20T05:36:59;1.53;;;1.33;;
4420;SDS011;11824;51.178;13.546;2023-12-20T05:39:29;2.70;;;2.50;;
4420;SDS011;11824;51.178;13.546;2023-12-20T05:41:58;2.17;;;1.87;;
4420;SDS011;11824;51.178;13.546;2023-12-20T05:44:27;1.80;;;1.70;;
4420;SDS011;11824;51.178;13.546;2023-12-20T05:46:55;1.37;;;1.10;;
4420;SDS011;11824;51.178;13.546;2023-12-20T05:49:25;5.60;;;1.40;;
4420;SDS011;11824;51.178;13.546;2023-12-20T05:51:54;0.97;;;0.87;;
4420;SDS011;11824;51.178;13.546;2023-12-20T05:54:23;1.30;;;1.20;;
4420;SDS011;11824;51.178;13.546;2023-12-20T05:56:52;1.60;;;1.50;;
4420;SDS011;11824;51.178;13.546;2023-12-20T05:59:21;2.03;;;1.63;;
4420;SDS011;11824;51.178;13.546;2023-12-20T06:01:53;1.20;;;1.20;;
4420;SDS011;11824;51.178;13.546;2023-12-20T06:04:22;1.70;;;1.60;;
4420;SDS011;11824;51.178;13.546;2023-12-20T06:06:52;1.40;;;1.30;;
4420;SDS011;11824;51.178;13.546;2023-12-20T06:09:21;1.50;;;1.40;;
4420;SDS011;11824;51.178;13.546;2023-12-20T06:11:50;4.57;;;1.67;;
4420;SDS011;11824;51.178;13.546;2023-12-20T06:14:18;1.30;;;1.30;;
4420;SDS011;11824;51.178;13.546;2023-12-20T06:16:46;1.30;;;1.23;;
4420;SDS011;11824;51.178;13.546;2023-12-20T06:19:15;1.50;;;1.40;;
4420;SDS011;11824;51.178;13.546;2023-12-20T06:21:44;1.50;;;1.43;;
4420;SDS011;11824;51.178;13.546;2023-12-20T06:24:14;4.40;;;1.50;;
4420;SDS011;11824;51.178;13.546;2023-12-20T06:26:43;2.07;;;1.97;;
4420;SDS011;11824;51.178;13.546;2023-12-20T06:29:12;1.67;;;1.57;;
4420;SDS011;11824;51.178;13.546;2023-12-20T06:31:41;1.40;;;1.40;;
4420;SDS011;11824;51.178;13.546;2023-12-20T06:34:10;1.70;;;1.60;;
4420;SDS011;11824;51.178;13.546;2023-12-20T06:36:39;1.77;;;1.67;;
4420;SDS011;11824;51.178;13.546;2023-12-20T06:39:07;3.40;;;3.10;;
4420;SDS011;11824;51.178;13.546;2023-12-20T06:41:40;2.37;;;1.77;;
4420;SDS011;11824;51.178;13.546;2023-12-20T06:44:09;2.60;;;1.63;;
4420;SDS011;11824;51.178;13.546;2023-12-20T06:46:38;2.50;;;2.23;;
4420;SDS011;11824;51.178;13.546;2023-12-20T06:49:06;24.70;;;11.73;;
4420;SDS011;11824;51.178;13.546;2023-12-20T06:51:35;5.23;;;4.40;;
4420;SDS011;11824;51.178;13.546;2023-12-20T06:54:04;6.63;;;3.27;;
4420;SDS011;11824;51.178;13.546;2023-12-20T06:56:33;3.97;;;3.53;;
4420;SDS011;11824;51.178;13.546;2023-12-20T06:59:03;5.40;;;4.90;;
4420;SDS011;11824;51.178;13.546;2023-12-20T07:01:32;5.67;;;5.07;;
4420;SDS011;11824;51.178;13.546;2023-12-20T07:04:01;4.80;;;4.00;;
4420;SDS011;11824;51.178;13.546;2023-12-20T07:06:30;4.73;;;4.27;;
4420;SDS011;11824;51.178;13.546;2023-12-20T07:08:59;4.57;;;3.87;;
4420;SDS011;11824;51.178;13.546;2023-12-20T07:11:28;3.27;;;3.07;;
4420;SDS011;11824;51.178;13.546;2023-12-20T07:13:57;4.10;;;3.70;;
4420;SDS011;11824;51.178;13.546;2023-12-20T07:16:26;3.87;;;3.60;;
4420;SDS011;11824;51.178;13.546;2023-12-20T07:18:55;3.70;;;3.40;;
4420;SDS011;11824;51.178;13.546;2023-12-20T07:21:24;4.43;;;4.03;;
4420;SDS011;11824;51.178;13.546;2023-12-20T07:23:53;4.30;;;3.90;;
4420;SDS011;11824;51.178;13.546;2023-12-20T07:26:21;6.17;;;4.27;;
4420;SDS011;11824;51.178;13.546;2023-12-20T07:28:50;4.27;;;3.80;;
4420;SDS011;11824;51.178;13.546;2023-12-20T07:31:19;5.20;;;3.80;;
4420;SDS011;11824;51.178;13.546;2023-12-20T07:33:49;7.50;;;6.80;;
4420;SDS011;11824;51.178;13.546;2023-12-20T07:36:19;4.37;;;4.00;;
4420;SDS011;11824;51.178;13.546;2023-12-20T07:38:48;8.10;;;4.93;;
4420;SDS011;11824;51.178;13.546;2023-12-20T07:41:17;4.57;;;4.17;;
4420;SDS011;11824;51.178;13.546;2023-12-20T07:43:47;4.20;;;3.90;;
4420;SDS011;11824;51.178;13.546;2023-12-20T07:46:16;3.97;;;3.30;;
4420;SDS011;11824;51.178;13.546;2023-12-20T07:48:50;5.80;;;3.77;;
4420;SDS011;11824;51.178;13.546;2023-12-20T07:51:19;6.60;;;4.90;;
4420;SDS011;11824;51.178;13.546;2023-12-20T07:53:48;6.47;;;5.40;;
4420;SDS011;11824;51.178;13.546;2023-12-20T07:56:17;4.20;;;3.60;;
4420;SDS011;11824;51.178;13.546;2023-12-20T07:58:47;4.63;;;4.23;;
4420;SDS011;11824;51.178;13.546;2023-12-20T08:01:19;10.20;;;4.90;;
4420;SDS011;11824;51.178;13.546;2023-12-20T08:03:50;4.93;;;4.20;;
4420;SDS011;11824;51.178;13.546;2023-12-20T08:06:19;7.43;;;5.10;;
4420;SDS011;11824;51.178;13.546;2023-12-20T08:08:48;7.03;;;4.60;;
4420;SDS011;11824;51.178;13.546;2023-12-20T08:11:27;6.77;;;4.37;;
4420;SDS011;11824;51.178;13.546;2023-12-20T08:13:57;9.03;;;5.13;;
4420;SDS011;11824;51.178;13.546;2023-12-20T08:16:26;4.40;;;3.97;;
4420;SDS011;11824;51.178;13.546;2023-12-20T08:18:56;5.00;;;4.23;;
4420;SDS011;11824;51.178;13.546;2023-12-20T08:21:25;4.53;;;3.53;;
4420;SDS011;11824;51.178;13.546;2023-12-20T08:23:54;4.33;;;3.53;;
4420;SDS011;11824;51.178;13.546;2023-12-20T08:26:23;5.00;;;2.40;;
4420;SDS011;11824;51.178;13.546;2023-12-20T08:28:52;3.60;;;3.20;;
4420;SDS011;11824;51.178;13.546;2023-12-20T08:31:23;4.80;;;2.30;;
4420;SDS011;11824;51.178;13.546;2023-12-20T08:33:52;1.90;;;1.70;;
4420;SDS011;11824;51.178;13.546;2023-12-20T08:36:23;11.80;;;2.63;;
4420;SDS011;11824;51.178;13.546;2023-12-20T08:38:52;2.03;;;1.93;;
4420;SDS011;11824;51.178;13.546;2023-12-20T08:41:21;5.50;;;2.07;;
4420;SDS011;11824;51.178;13.546;2023-12-20T08:43:50;2.50;;;2.30;;
4420;SDS011;11824;51.178;13.546;2023-12-20T08:46:19;3.97;;;2.63;;
4420;SDS011;11824;51.178;13.546;2023-12-20T08:48:48;6.30;;;2.37;;
4420;SDS011;11824;51.178;13.546;2023-12-20T08:51:17;4.40;;;2.90;;
4420;SDS011;11824;51.178;13.546;2023-12-20T08:53:48;4.13;;;2.70;;
4420;SDS011;11824;51.178;13.546;2023-12-20T08:56:17;2.30;;;1.90;;
4420;SDS011;11824;51.178;13.546;2023-12-20T08:58:46;4.30;;;3.00;;
4420;SDS011;11824;51.178;13.546;2023-12-20T09:01:15;2.73;;;2.47;;
4420;SDS011;11824;51.178;13.546;2023-12-20T09:03:44;3.23;;;2.37;;
4420;SDS011;11824;51.178;13.546;2023-12-20T09:06:13;4.00;;;3.30;;
4420;SDS011;11824;51.178;13.546;2023-12-20T09:08:42;10.13;;;3.63;;
4420;SDS011;11824;51.178;13.546;2023-12-20T09:11:12;7.73;;;4.13;;
4420;SDS011;11824;51.178;13.546;2023-12-20T09:13:41;17.33;;;5.00;;
4420;SDS011;11824;51.178;13.546;2023-12-20T09:16:11;3.50;;;2.10;;
4420;SDS011;11824;51.178;13.546;2023-12-20T09:18:42;3.10;;;1.77;;
4420;SDS011;11824;51.178;13.546;2023-12-20T09:21:11;9.10;;;1.57;;
4420;SDS011;11824;51.178;13.546;2023-12-20T09:23:40;2.60;;;1.70;;
4420;SDS011;11824;51.178;13.546;2023-12-20T09:26:08;5.40;;;1.60;;
4420;SDS011;11824;51.178;13.546;2023-12-20T09:28:39;6.70;;;2.40;;
4420;SDS011;11824;51.178;13.546;2023-12-20T09:31:07;2.27;;;1.53;;
4420;SDS011;11824;51.178;13.546;2023-12-20T09:33:36;3.37;;;1.67;;
4420;SDS011;11824;51.178;13.546;2023-12-20T09:36:05;0.83;;;0.83;;
4420;SDS011;11824;51.178;13.546;2023-12-20T09:38:34;3.93;;;2.63;;
4420;SDS011;11824;51.178;13.546;2023-12-20T09:41:03;1.87;;;1.20;;
4420;SDS011;11824;51.178;13.546;2023-12-20T09:43:32;3.27;;;2.00;;
4420;SDS011;11824;51.178;13.546;2023-12-20T09:46:06;2.50;;;1.60;;
4420;SDS011;11824;51.178;13.546;2023-12-20T09:48:37;14.77;;;3.50;;
4420;SDS011;11824;51.178;13.546;2023-12-20T09:51:07;3.90;;;1.63;;
4420;SDS011;11824;51.178;13.546;2023-12-20T09:53:35;7.90;;;3.17;;
4420;SDS011;11824;51.178;13.546;2023-12-20T09:56:05;2.33;;;1.47;;
4420;SDS011;11824;51.178;13.546;2023-12-20T09:58:36;2.33;;;1.97;;
4420;SDS011;11824;51.178;13.546;2023-12-20T10:01:07;3.37;;;2.33;;
4420;SDS011;11824;51.178;13.546;2023-12-20T10:03:37;3.47;;;1.57;;
4420;SDS011;11824;51.178;13.546;2023-12-20T10:06:08;6.30;;;2.10;;
4420;SDS011;11824;51.178;13.546;2023-12-20T10:08:38;8.67;;;2.67;;
4420;SDS011;11824;51.178;13.546;2023-12-20T10:11:07;3.03;;;1.67;;
4420;SDS011;11824;51.178;13.546;2023-12-20T10:13:38;2.30;;;1.60;;
4420;SDS011;11824;51.178;13.546;2023-12-20T10:16:09;2.03;;;1.93;;
4420;SDS011;11824;51.178;13.546;2023-12-20T10:18:38;3.30;;;2.90;;
4420;SDS011;11824;51.178;13.546;2023-12-20T10:21:08;8.97;;;3.40;;
4420;SDS011;11824;51.178;13.546;2023-12-20T10:23:38;4.90;;;2.67;;
4420;SDS011;11824;51.178;13.546;2023-12-20T10:26:07;10.23;;;5.03;;
4420;SDS011;11824;51.178;13.546;2023-12-20T10:28:36;6.00;;;3.13;;
4420;SDS011;11824;51.178;13.546;2023-12-20T10:31:05;6.03;;;3.70;;
4420;SDS011;11824;51.178;13.546;2023-12-20T10:33:36;12.17;;;6.10;;
4420;SDS011;11824;51.178;13.546;2023-12-20T10:36:07;7.90;;;3.80;;
4420;SDS011;11824;51.178;13.546;2023-12-20T10:38:39;1.37;;;1.27;;
4420;SDS011;11824;51.178;13.546;2023-12-20T10:41:11;10.57;;;2.50;;
4420;SDS011;11824;51.178;13.546;2023-12-20T10:43:43;11.20;;;3.90;;
4420;SDS011;11824;51.178;13.546;2023-12-20T10:46:14;6.10;;;2.13;;
4420;SDS011;11824;51.178;13.546;2023-12-20T10:48:46;4.67;;;2.10;;
4420;SDS011;11824;51.178;13.546;2023-12-20T10:51:17;2.33;;;1.73;;
4420;SDS011;11824;51.178;13.546;2023-12-20T10:53:47;3.50;;;2.20;;
4420;SDS011;11824;51.178;13.546;2023-12-20T10:56:17;4.47;;;2.20;;
4420;SDS011;11824;51.178;13.546;2023-12-20T10:58:47;7.57;;;2.70;;
4420;SDS011;11824;51.178;13.546;2023-12-20T11:01:17;2.03;;;1.90;;
4420;SDS011;11824;51.178;13.546;2023-12-20T11:03:50;2.60;;;1.70;;
4420;SDS011;11824;51.178;13.546;2023-12-20T11:06:26;2.33;;;2.13;;
4420;SDS011;11824;51.178;13.546;2023-12-20T11:08:59;2.60;;;1.47;;
4420;SDS011;11824;51.178;13.546;2023-12-20T11:11:52;2.13;;;1.93;;
4420;SDS011;11824;51.178;13.546;2023-12-20T11:14:29;3.77;;;1.57;;
4420;SDS011;11824;51.178;13.546;2023-12-20T11:17:06;4.47;;;1.93;;
4420;SDS011;11824;51.178;13.546;2023-12-20T11:19:38;7.73;;;3.03;;
4420;SDS011;11824;51.178;13.546;2023-12-20T11:22:31;7.30;;;2.20;;
4420;SDS011;11824;51.178;13.546;2023-12-20T11:25:06;3.27;;;1.83;;
4420;SDS011;11824;51.178;13.546;2023-12-20T11:27:37;14.40;;;1.57;;
4420;SDS011;11824;51.178;13.546;2023-12-20T11:30:10;3.47;;;2.10;;
4420;SDS011;11824;51.178;13.546;2023-12-20T11:32:41;5.53;;;2.97;;
4420;SDS011;11824;51.178;13.546;2023-12-20T11:35:18;4.13;;;1.73;;
4420;SDS011;11824;51.178;13.546;2023-12-20T11:37:48;15.57;;;2.37;;
4420;SDS011;11824;51.178;13.546;2023-12-20T11:40:18;2.13;;;1.70;;
4420;SDS011;11824;51.178;13.546;2023-12-20T11:42:49;9.10;;;1.90;;
4420;SDS011;11824;51.178;13.546;2023-12-20T11:45:19;9.73;;;2.70;;
4420;SDS011;11824;51.178;13.546;2023-12-20T11:47:54;3.40;;;1.00;;
4420;SDS011;11824;51.178;13.546;2023-12-20T11:50:26;5.23;;;2.80;;
4420;SDS011;11824;51.178;13.546;2023-12-20T11:52:56;4.90;;;2.30;;
4420;SDS011;11824;51.178;13.546;2023-12-20T11:55:25;6.10;;;1.87;;
4420;SDS011;11824;51.178;13.546;2023-12-20T11:57:54;4.37;;;2.40;;
4420;SDS011;11824;51.178;13.546;2023-12-20T12:00:24;4.40;;;1.40;;
4420;SDS011;11824;51.178;13.546;2023-12-20T12:02:56;9.73;;;2.10;;
4420;SDS011;11824;51.178;13.546;2023-12-20T12:05:27;8.03;;;2.07;;
4420;SDS011;11824;51.178;13.546;2023-12-20T12:07:58;4.83;;;1.77;;
4420;SDS011;11824;51.178;13.546;2023-12-20T12:10:27;3.30;;;1.73;;
4420;SDS011;11824;51.178;13.546;2023-12-20T12:12:56;5.83;;;2.00;;
4420;SDS011;11824;51.178;13.546;2023-12-20T12:15:25;1.90;;;1.80;;
4420;SDS011;11824;51.178;13.546;2023-12-20T12:17:54;7.40;;;2.40;;
4420;SDS011;11824;51.178;13.546;2023-12-20T12:20:23;9.30;;;1.97;;
4420;SDS011;11824;51.178;13.546;2023-12-20T12:23:00;2.73;;;1.80;;
4420;SDS011;11824;51.178;13.546;2023-12-20T12:25:31;4.30;;;1.07;;
4420;SDS011;11824;51.178;13.546;2023-12-20T12:28:07;6.33;;;3.03;;
4420;SDS011;11824;51.178;13.546;2023-12-20T12:30:36;3.93;;;2.70;;
4420;SDS011;11824;51.178;13.546;2023-12-20T12:33:18;8.43;;;2.50;;
4420;SDS011;11824;51.178;13.546;2023-12-20T12:35:48;1.73;;;1.40;;
4420;SDS011;11824;51.178;13.546;2023-12-20T12:38:20;1.63;;;1.20;;
4420;SDS011;11824;51.178;13.546;2023-12-20T12:40:49;3.97;;;1.87;;
4420;SDS011;11824;51.178;13.546;2023-12-20T12:43:20;6.00;;;2.30;;
4420;SDS011;11824;51.178;13.546;2023-12-20T12:45:49;3.40;;;1.70;;
4420;SDS011;11824;51.178;13.546;2023-12-20T12:48:18;5.07;;;1.80;;
4420;SDS011;11824;51.178;13.546;2023-12-20T12:50:47;4.20;;;1.50;;
4420;SDS011;11824;51.178;13.546;2023-12-20T12:53:18;3.00;;;1.70;;
4420;SDS011;11824;51.178;13.546;2023-12-20T12:55:48;9.13;;;1.73;;
4420;SDS011;11824;51.178;13.546;2023-12-20T12:58:17;9.63;;;2.10;;
4420;SDS011;11824;51.178;13.546;2023-12-20T13:00:46;3.13;;;1.37;;
4420;SDS011;11824;51.178;13.546;2023-12-20T13:03:15;2.03;;;1.53;;
4420;SDS011;11824;51.178;13.546;2023-12-20T13:05:44;3.73;;;1.90;;
4420;SDS011;11824;51.178;13.546;2023-12-20T13:08:14;1.00;;;1.00;;
4420;SDS011;11824;51.178;13.546;2023-12-20T13:10:45;3.90;;;2.23;;
4420;SDS011;11824;51.178;13.546;2023-12-20T13:13:13;6.27;;;3.53;;
4420;SDS011;11824;51.178;13.546;2023-12-20T13:15:43;13.27;;;5.37;;
4420;SDS011;11824;51.178;13.546;2023-12-20T13:18:17;12.53;;;5.07;;
4420;SDS011;11824;51.178;13.546;2023-12-20T13:20:46;4.37;;;2.20;;
4420;SDS011;11824;51.178;13.546;2023-12-20T13:23:15;8.43;;;2.37;;
4420;SDS011;11824;51.178;13.546;2023-12-20T13:25:46;6.07;;;2.33;;
4420;SDS011;11824;51.178;13.546;2023-12-20T13:28:15;2.17;;;1.60;;
4420;SDS011;11824;51.178;13.546;2023-12-20T13:30:44;7.77;;;2.43;;
4420;SDS011;11824;51.178;13.546;2023-12-20T13:33:13;1.90;;;1.80;;
4420;SDS011;11824;51.178;13.546;2023-12-20T13:35:42;3.00;;;1.30;;
4420;SDS011;11824;51.178;13.546;2023-12-20T13:38:12;3.40;;;1.43;;
4420;SDS011;11824;51.178;13.546;2023-12-20T13:40:41;6.90;;;1.93;;
4420;SDS011;11824;51.178;13.546;2023-12-20T13:43:11;7.63;;;2.57;;
4420;SDS011;11824;51.178;13.546;2023-12-20T13:45:42;6.90;;;1.63;;
4420;SDS011;11824;51.178;13.546;2023-12-20T13:48:10;5.73;;;2.40;;
4420;SDS011;11824;51.178;13.546;2023-12-20T13:50:40;3.17;;;2.10;;
4420;SDS011;11824;51.178;13.546;2023-12-20T13:53:09;7.63;;;2.27;;
4420;SDS011;11824;51.178;13.546;2023-12-20T13:55:38;18.23;;;4.00;;
4420;SDS011;11824;51.178;13.546;2023-12-20T13:58:07;4.03;;;2.10;;
4420;SDS011;11824;51.178;13.546;2023-12-20T14:00:38;3.37;;;1.70;;
4420;SDS011;11824;51.178;13.546;2023-12-20T14:03:07;9.83;;;1.70;;
4420;SDS011;11824;51.178;13.546;2023-12-20T14:05:36;4.77;;;1.67;;
4420;SDS011;11824;51.178;13.546;2023-12-20T14:08:06;7.73;;;1.93;;
4420;SDS011;11824;51.178;13.546;2023-12-20T14:10:35;7.73;;;1.80;;
4420;SDS011;11824;51.178;13.546;2023-12-20T14:13:05;1.77;;;1.50;;
4420;SDS011;11824;51.178;13.546;2023-12-20T14:15:34;6.60;;;1.50;;
4420;SDS011;11824;51.178;13.546;2023-12-20T14:18:05;3.90;;;1.90;;
4420;SDS011;11824;51.178;13.546;2023-12-20T14:20:35;4.00;;;2.17;;
4420;SDS011;11824;51.178;13.546;2023-12-20T14:23:05;3.07;;;2.27;;
4420;SDS011;11824;51.178;13.546;2023-12-20T14:25:35;5.50;;;2.53;;
4420;SDS011;11824;51.178;13.546;2023-12-20T14:28:17;2.80;;;1.87;;
4420;SDS011;11824;51.178;13.546;2023-12-20T14:30:46;3.40;;;1.90;;
4420;SDS011;11824;51.178;13.546;2023-12-20T14:33:17;1.70;;;1.60;;
4420;SDS011;11824;51.178;13.546;2023-12-20T14:35:48;1.70;;;1.60;;
4420;SDS011;11824;51.178;13.546;2023-12-20T14:38:17;4.57;;;2.10;;
4420;SDS011;11824;51.178;13.546;2023-12-20T14:40:46;4.53;;;1.83;;
4420;SDS011;11824;51.178;13.546;2023-12-20T14:43:14;2.07;;;1.87;;
4420;SDS011;11824;51.178;13.546;2023-12-20T14:45:44;4.77;;;1.40;;
4420;SDS011;11824;51.178;13.546;2023-12-20T14:48:13;1.50;;;1.33;;
4420;SDS011;11824;51.178;13.546;2023-12-20T14:50:44;1.80;;;1.40;;
4420;SDS011;11824;51.178;13.546;2023-12-20T14:53:14;3.33;;;1.20;;
4420;SDS011;11824;51.178;13.546;2023-12-20T14:55:48;1.93;;;1.83;;
4420;SDS011;11824;51.178;13.546;2023-12-20T14:58:17;0.80;;;0.80;;
4420;SDS011;11824;51.178;13.546;2023-12-20T15:00:46;2.93;;;1.13;;
4420;SDS011;11824;51.178;13.546;2023-12-20T15:03:15;1.77;;;1.03;;